CMA CGM Virginia — 2BCY3 — position and weather

sailwx.info

Track history (hours):
 
Tides and Currents Weather Stations Pressure Air Temp Water Temp Dewpoint Dewpoint Depression Visibility Wind Speed Wind Dir Waves Ship Positions

CMA CGM Virginia

Last reported at 2017-Nov-08 20:08 UTC. Time now 2017-Nov-19 21:50 UTC.
Position N 37°29' E 025°56'.
Warning: this ship's position is 11 days out of date.

Length 293 m; draft 10.2 m.

Type: Cargo ship. MMSI: 235065043.

Date/timePositionNaut miles runAvg speedWind from/ knotsBaromVisibWave heightAir tempDewpointWater temp
2017-Nov-08 20:08N 37°29' E 025°56'212.6
2017-Nov-08 20:00N 37°30' E 025°54'612.5
2017-Nov-08 19:30N 37°35' E 025°50'612.7
2017-Nov-08 19:00N 37°41' E 025°47'713.0
2017-Nov-08 18:30N 37°47' E 025°43'  
2017-Nov-05 20:29N 35°48' E 014°39'6 9.4
2017-Nov-05 19:52N 35°49' E 014°32'0 0.1
2017-Nov-05 18:59N 35°49' E 014°32'0 0.0
2017-Nov-05 18:20N 35°49' E 014°32'0 0.0
2017-Nov-05 16:59N 35°49' E 014°32'0 0.0
2017-Nov-05 16:29N 35°49' E 014°32'0 0.0
2017-Nov-05 15:50N 35°49' E 014°32'0 0.0
2017-Nov-05 15:23N 35°49' E 014°32'0 0.0
2017-Nov-05 14:56N 35°49' E 014°32'0 0.0
2017-Nov-05 13:53N 35°49' E 014°32'0 0.0
2017-Nov-05 13:29N 35°49' E 014°32'0 0.0
2017-Nov-05 11:20N 35°49' E 014°32'0 0.0
2017-Nov-05 10:53N 35°49' E 014°32'0 0.0
2017-Nov-05 09:53N 35°49' E 014°32'0 0.0
2017-Nov-05 07:23N 35°49' E 014°32'0 0.0
2017-Nov-05 06:59N 35°49' E 014°32'0 0.0
2017-Nov-05 06:29N 35°49' E 014°32'0 0.0
2017-Nov-05 05:56N 35°49' E 014°32'0 0.0
2017-Nov-05 05:29N 35°49' E 014°32'0 0.0
2017-Nov-05 04:59N 35°49' E 014°32'0 0.0
2017-Nov-05 04:29N 35°49' E 014°32'0 0.0
2017-Nov-05 03:56N 35°49' E 014°32'0 0.0
2017-Nov-05 03:29N 35°49' E 014°32'0 0.0
2017-Nov-05 02:56N 35°49' E 014°32'0 0.0
2017-Nov-05 02:29N 35°49' E 014°32'0 0.0
2017-Nov-04 23:44N 35°49' E 014°32'1 2.1
2017-Nov-04 23:29N 35°49' E 014°33'2 4.2
2017-Nov-04 22:54N 35°47' E 014°34'1 1.5
2017-Nov-04 22:30N 35°47' E 014°34'1 1.2
2017-Nov-04 22:00N 35°48' E 014°35'1 1.3
2017-Nov-04 21:30N 35°48' E 014°35'3 5.1
2017-Nov-04 21:00N 35°46' E 014°37'2 3.1
2017-Nov-04 20:30N 35°45' E 014°39'1 1.1
2017-Nov-04 19:59N 35°45' E 014°40'0 1.0
2017-Nov-04 19:30N 35°45' E 014°40'0 0.9
2017-Nov-04 18:59N 35°44' E 014°41'0 0.8
2017-Nov-04 18:30N 35°44' E 014°41'0 0.6
2017-Nov-04 17:58N 35°44' E 014°41'1 1.3
2017-Nov-04 17:28N 35°45' E 014°41'4 8.2
2017-Nov-04 17:00N 35°48' E 014°38'1 2.1
2017-Nov-04 16:30N 35°48' E 014°37'1 1.2
2017-Nov-04 16:00N 35°48' E 014°38'1 1.2
2017-Nov-04 15:30N 35°48' E 014°38'1 1.1
2017-Nov-04 14:52N 35°47' E 014°39'1 3.7
2017-Nov-04 14:29N 35°47' E 014°41'611.8
2017-Nov-04 14:00N 35°48' E 014°48'44410.4
2017-Nov-02 19:29N 37°28' E 023°46'611.8
2017-Nov-02 19:01N 37°34' E 023°44'611.8
2017-Nov-02 18:31N 37°39' E 023°42'611.9
2017-Nov-02 18:01N 37°45' E 023°39'611.6
2017-Nov-02 17:31N 37°50' E 023°37'611.6
2017-Nov-02 17:01N 37°56' E 023°36'1 2.5
2017-Nov-02 16:28N 37°57' E 023°35'0 0.0
2017-Nov-02 15:58N 37°57' E 023°35'0 0.0
2017-Nov-02 15:28N 37°57' E 023°35'0 0.0
2017-Nov-02 14:58N 37°57' E 023°35'0 0.0
2017-Nov-02 14:28N 37°57' E 023°35'0 0.0
2017-Nov-02 13:58N 37°57' E 023°35'0 0.0
2017-Nov-02 13:28N 37°57' E 023°35'0 0.0
2017-Nov-02 12:58N 37°57' E 023°35'0 0.0
2017-Nov-02 12:28N 37°57' E 023°35'0 0.0
2017-Nov-02 11:58N 37°57' E 023°35'0 0.0
2017-Nov-02 11:28N 37°57' E 023°35'0 0.1
2017-Nov-02 10:58N 37°57' E 023°35'0 0.1
2017-Nov-02 10:28N 37°57' E 023°35'0 0.0
2017-Nov-02 09:58N 37°57' E 023°35'0 0.0
2017-Nov-02 09:28N 37°57' E 023°35'0 0.0
2017-Nov-02 08:58N 37°57' E 023°35'0 0.0
2017-Nov-02 08:28N 37°57' E 023°35'0 0.0
2017-Nov-02 07:58N 37°57' E 023°35'0 0.0
2017-Nov-02 07:28N 37°57' E 023°35'0 0.0
2017-Nov-02 06:58N 37°57' E 023°35'0 0.0
2017-Nov-02 06:31N 37°57' E 023°35'2 3.1
2017-Nov-02 06:01N 37°56' E 023°35'1 2.2
2017-Nov-02 05:31N 37°55' E 023°35'0 0.3
2017-Nov-02 05:01N 37°55' E 023°35'0 0.2
2017-Nov-02 04:30N 37°55' E 023°35'0 1.0
2017-Nov-02 04:01N 37°54' E 023°36'3 5.6
2017-Nov-02 03:31N 37°52' E 023°38'611.7
2017-Nov-02 03:00N 37°47' E 023°41'714.0
2017-Nov-02 02:30N 37°40' E 023°45'714.9
2017-Nov-02 02:00N 37°33' E 023°48'  
Track history (hours):
 
Tides and Currents Weather Stations Pressure Air Temp Water Temp Dewpoint Dewpoint Depression Visibility Wind Speed Wind Dir Waves Ship Positions

CMA CGM Virginia

Last reported at 2017-Nov-08 20:08 UTC. Time now 2017-Nov-19 21:50 UTC.
Position N 37°29' E 025°56'.
Warning: this ship's position is 11 days out of date.

Length 293 m; draft 10.2 m.

Type: Cargo ship. MMSI: 235065043.

Date/timePositionNaut miles runAvg speedWind from/ knotsBaromVisibWave heightAir tempDewpointWater temp
2017-Nov-08 20:08N 37°29' E 025°56'212.6
2017-Nov-08 20:00N 37°30' E 025°54'612.5
2017-Nov-08 19:30N 37°35' E 025°50'612.7
2017-Nov-08 19:00N 37°41' E 025°47'713.0
2017-Nov-08 18:30N 37°47' E 025°43'  
2017-Nov-05 20:29N 35°48' E 014°39'6 9.4
2017-Nov-05 19:52N 35°49' E 014°32'0 0.1
2017-Nov-05 18:59N 35°49' E 014°32'0 0.0
2017-Nov-05 18:20N 35°49' E 014°32'0 0.0
2017-Nov-05 16:59N 35°49' E 014°32'0 0.0
2017-Nov-05 16:29N 35°49' E 014°32'0 0.0
2017-Nov-05 15:50N 35°49' E 014°32'0 0.0
2017-Nov-05 15:23N 35°49' E 014°32'0 0.0
2017-Nov-05 14:56N 35°49' E 014°32'0 0.0
2017-Nov-05 13:53N 35°49' E 014°32'0 0.0
2017-Nov-05 13:29N 35°49' E 014°32'0 0.0
2017-Nov-05 11:20N 35°49' E 014°32'0 0.0
2017-Nov-05 10:53N 35°49' E 014°32'0 0.0
2017-Nov-05 09:53N 35°49' E 014°32'0 0.0
2017-Nov-05 07:23N 35°49' E 014°32'0 0.0
2017-Nov-05 06:59N 35°49' E 014°32'0 0.0
2017-Nov-05 06:29N 35°49' E 014°32'0 0.0
2017-Nov-05 05:56N 35°49' E 014°32'0 0.0
2017-Nov-05 05:29N 35°49' E 014°32'0 0.0
2017-Nov-05 04:59N 35°49' E 014°32'0 0.0
2017-Nov-05 04:29N 35°49' E 014°32'0 0.0
2017-Nov-05 03:56N 35°49' E 014°32'0 0.0
2017-Nov-05 03:29N 35°49' E 014°32'0 0.0
2017-Nov-05 02:56N 35°49' E 014°32'0 0.0
2017-Nov-05 02:29N 35°49' E 014°32'0 0.0
2017-Nov-04 23:44N 35°49' E 014°32'1 2.1
2017-Nov-04 23:29N 35°49' E 014°33'2 4.2
2017-Nov-04 22:54N 35°47' E 014°34'1 1.5
2017-Nov-04 22:30N 35°47' E 014°34'1 1.2
2017-Nov-04 22:00N 35°48' E 014°35'1 1.3
2017-Nov-04 21:30N 35°48' E 014°35'3 5.1
2017-Nov-04 21:00N 35°46' E 014°37'2 3.1
2017-Nov-04 20:30N 35°45' E 014°39'1 1.1
2017-Nov-04 19:59N 35°45' E 014°40'0 1.0
2017-Nov-04 19:30N 35°45' E 014°40'0 0.9
2017-Nov-04 18:59N 35°44' E 014°41'0 0.8
2017-Nov-04 18:30N 35°44' E 014°41'0 0.6
2017-Nov-04 17:58N 35°44' E 014°41'1 1.3
2017-Nov-04 17:28N 35°45' E 014°41'4 8.2
2017-Nov-04 17:00N 35°48' E 014°38'1 2.1
2017-Nov-04 16:30N 35°48' E 014°37'1 1.2
2017-Nov-04 16:00N 35°48' E 014°38'1 1.2
2017-Nov-04 15:30N 35°48' E 014°38'1 1.1
2017-Nov-04 14:52N 35°47' E 014°39'1 3.7
2017-Nov-04 14:29N 35°47' E 014°41'611.8
2017-Nov-04 14:00N 35°48' E 014°48'44410.4
2017-Nov-02 19:29N 37°28' E 023°46'611.8
2017-Nov-02 19:01N 37°34' E 023°44'611.8
2017-Nov-02 18:31N 37°39' E 023°42'611.9
2017-Nov-02 18:01N 37°45' E 023°39'611.6
2017-Nov-02 17:31N 37°50' E 023°37'611.6
2017-Nov-02 17:01N 37°56' E 023°36'1 2.5
2017-Nov-02 16:28N 37°57' E 023°35'0 0.0
2017-Nov-02 15:58N 37°57' E 023°35'0 0.0
2017-Nov-02 15:28N 37°57' E 023°35'0 0.0
2017-Nov-02 14:58N 37°57' E 023°35'0 0.0
2017-Nov-02 14:28N 37°57' E 023°35'0 0.0
2017-Nov-02 13:58N 37°57' E 023°35'0 0.0
2017-Nov-02 13:28N 37°57' E 023°35'0 0.0
2017-Nov-02 12:58N 37°57' E 023°35'0 0.0
2017-Nov-02 12:28N 37°57' E 023°35'0 0.0
2017-Nov-02 11:58N 37°57' E 023°35'0 0.0
2017-Nov-02 11:28N 37°57' E 023°35'0 0.1
2017-Nov-02 10:58N 37°57' E 023°35'0 0.1
2017-Nov-02 10:28N 37°57' E 023°35'0 0.0
2017-Nov-02 09:58N 37°57' E 023°35'0 0.0
2017-Nov-02 09:28N 37°57' E 023°35'0 0.0
2017-Nov-02 08:58N 37°57' E 023°35'0 0.0
2017-Nov-02 08:28N 37°57' E 023°35'0 0.0
2017-Nov-02 07:58N 37°57' E 023°35'0 0.0
2017-Nov-02 07:28N 37°57' E 023°35'0 0.0
2017-Nov-02 06:58N 37°57' E 023°35'0 0.0
2017-Nov-02 06:31N 37°57' E 023°35'2 3.1
2017-Nov-02 06:01N 37°56' E 023°35'1 2.2
2017-Nov-02 05:31N 37°55' E 023°35'0 0.3
2017-Nov-02 05:01N 37°55' E 023°35'0 0.2
2017-Nov-02 04:30N 37°55' E 023°35'0 1.0
2017-Nov-02 04:01N 37°54' E 023°36'3 5.6
2017-Nov-02 03:31N 37°52' E 023°38'611.7
2017-Nov-02 03:00N 37°47' E 023°41'714.0
2017-Nov-02 02:30N 37°40' E 023°45'714.9
2017-Nov-02 02:00N 37°33' E 023°48'  

Dump ship's entire track history